createdAt,value
2023-03-26T00:01:36.301Z,-7.20
2023-03-26T00:04:03.214Z,-7.20
2023-03-26T00:06:31.305Z,-7.18
2023-03-26T00:08:58.085Z,-7.16
2023-03-26T00:11:26.470Z,-7.12
2023-03-26T00:13:56.909Z,-7.06
2023-03-26T00:16:24.533Z,-7.08
2023-03-26T00:18:51.633Z,-7.08
2023-03-26T00:21:21.223Z,-7.09
2023-03-26T00:23:49.090Z,-7.08
2023-03-26T00:26:17.490Z,-7.08
2023-03-26T00:28:44.006Z,-7.07
2023-03-26T00:31:14.404Z,-7.08
2023-03-26T00:33:41.313Z,-7.11
2023-03-26T00:36:10.461Z,-7.12
2023-03-26T00:38:38.894Z,-7.12
2023-03-26T00:41:07.120Z,-7.08
2023-03-26T00:43:35.052Z,-7.07
2023-03-26T00:46:02.202Z,-7.02
2023-03-26T00:48:42.268Z,-7.01
2023-03-26T00:51:11.390Z,-7.01
2023-03-26T00:53:38.941Z,-7.00
2023-03-26T00:56:06.513Z,-6.96
2023-03-26T00:58:33.524Z,-6.94
2023-03-26T01:01:13.675Z,-6.95
2023-03-26T01:03:40.797Z,-6.95
2023-03-26T01:06:09.107Z,-6.96
2023-03-26T01:08:38.222Z,-6.97
2023-03-26T01:11:13.981Z,-6.97
2023-03-26T01:13:43.551Z,-6.98
2023-03-26T01:16:20.203Z,-6.95
2023-03-26T01:18:47.049Z,-6.98
2023-03-26T01:21:14.462Z,-7.00
2023-03-26T01:23:49.050Z,-7.03
2023-03-26T01:26:27.963Z,-6.97
2023-03-26T01:28:56.147Z,-6.94
2023-03-26T01:31:39.594Z,-6.91
2023-03-26T01:34:18.162Z,-6.89
2023-03-26T01:36:57.728Z,-6.89
2023-03-26T01:39:49.041Z,-6.88
2023-03-26T01:42:17.495Z,-6.86
2023-03-26T01:44:46.374Z,-6.87
2023-03-26T01:47:12.919Z,-6.89
2023-03-26T01:49:39.366Z,-6.91
2023-03-26T01:52:14.499Z,-6.97
2023-03-26T01:54:41.325Z,-6.98
2023-03-26T01:57:16.805Z,-6.99
2023-03-26T01:59:43.146Z,-7.03
2023-03-26T02:02:24.973Z,-7.02
2023-03-26T02:05:21.465Z,-7.01
2023-03-26T02:07:50.884Z,-6.98
2023-03-26T02:10:22.009Z,-7.02
2023-03-26T02:12:48.478Z,-7.02
2023-03-26T02:15:15.630Z,-7.03
2023-03-26T02:17:42.123Z,-7.00
2023-03-26T02:20:10.293Z,-7.00
2023-03-26T02:22:40.939Z,-7.03
2023-03-26T02:25:09.374Z,-6.90
2023-03-26T02:27:36.966Z,-6.82
2023-03-26T02:30:07.999Z,-6.86
2023-03-26T02:32:35.021Z,-6.82
2023-03-26T02:35:01.811Z,-6.75
2023-03-26T02:37:30.370Z,-6.75
2023-03-26T02:39:56.859Z,-6.72
2023-03-26T02:42:23.311Z,-6.74
2023-03-26T02:44:49.870Z,-6.71
2023-03-26T02:47:16.348Z,-6.67
2023-03-26T02:49:46.298Z,-6.62
2023-03-26T02:52:12.917Z,-6.59
2023-03-26T02:54:39.383Z,-6.58
2023-03-26T02:57:05.899Z,-6.53
2023-03-26T02:59:32.405Z,-6.48
2023-03-26T03:01:58.876Z,-6.41
2023-03-26T03:04:25.382Z,-6.42
2023-03-26T03:06:57.373Z,-6.38
2023-03-26T03:09:24.939Z,-6.42
2023-03-26T03:11:54.216Z,-6.43
2023-03-26T03:14:21.084Z,-6.53
2023-03-26T03:16:47.646Z,-6.57
2023-03-26T03:19:14.224Z,-6.54
2023-03-26T03:21:40.946Z,-6.54
2023-03-26T03:24:07.737Z,-6.53
2023-03-26T03:26:34.237Z,-6.47
2023-03-26T03:29:00.984Z,-6.48
2023-03-26T03:31:28.209Z,-6.44
2023-03-26T03:33:54.782Z,-6.40
2023-03-26T03:36:27.866Z,-6.40
2023-03-26T03:38:54.475Z,-6.35
2023-03-26T03:41:21.022Z,-6.33
2023-03-26T03:43:47.530Z,-6.30
2023-03-26T03:46:14.022Z,-6.30
2023-03-26T03:48:40.626Z,-6.34
2023-03-26T03:51:07.143Z,-6.32
2023-03-26T03:53:37.113Z,-6.26
2023-03-26T03:56:04.491Z,-6.22
2023-03-26T03:58:31.108Z,-6.24
2023-03-26T04:01:00.817Z,-6.25
2023-03-26T04:03:33.401Z,-6.17
2023-03-26T04:06:01.099Z,-6.09
2023-03-26T04:08:27.655Z,-6.01
2023-03-26T04:10:54.127Z,-5.95
2023-03-26T04:13:20.679Z,-5.88
2023-03-26T04:15:47.263Z,-5.82
2023-03-26T04:18:13.819Z,-5.79
2023-03-26T04:20:46.247Z,-5.78
2023-03-26T04:23:18.126Z,-5.86
2023-03-26T04:25:48.366Z,-5.99
2023-03-26T04:28:22.294Z,-6.02
2023-03-26T04:30:48.879Z,-5.99
2023-03-26T04:33:15.524Z,-5.99
2023-03-26T04:35:44.357Z,-6.06
2023-03-26T04:38:10.857Z,-6.10
2023-03-26T04:40:37.316Z,-6.13
2023-03-26T04:43:03.996Z,-6.17
2023-03-26T04:45:31.184Z,-6.19
2023-03-26T04:47:58.285Z,-6.14
2023-03-26T04:50:25.455Z,-6.17
2023-03-26T04:52:52.442Z,-6.16
2023-03-26T04:55:37.481Z,-6.15
2023-03-26T04:58:05.422Z,-6.05
2023-03-26T05:00:31.984Z,-5.98
2023-03-26T05:03:01.523Z,-5.93
2023-03-26T05:05:28.342Z,-5.91
2023-03-26T05:07:55.914Z,-5.98
2023-03-26T05:10:22.592Z,-6.11
2023-03-26T05:12:49.260Z,-6.15
2023-03-26T05:15:15.994Z,-6.12
2023-03-26T05:17:42.634Z,-6.10
2023-03-26T05:20:20.772Z,-6.09
2023-03-26T05:22:50.754Z,-6.04
2023-03-26T05:25:17.752Z,-5.98
2023-03-26T05:27:44.549Z,-5.98
2023-03-26T05:30:16.753Z,-5.95
2023-03-26T05:32:43.272Z,-5.95
2023-03-26T05:35:09.920Z,-5.99
2023-03-26T05:37:38.758Z,-6.02
2023-03-26T05:40:11.479Z,-6.00
2023-03-26T05:42:38.798Z,-5.98
2023-03-26T05:45:07.273Z,-5.96
2023-03-26T05:47:33.934Z,-5.95
2023-03-26T05:50:00.616Z,-5.94
2023-03-26T05:52:27.419Z,-5.93
2023-03-26T05:54:53.938Z,-5.89
2023-03-26T05:57:22.282Z,-5.85
2023-03-26T05:59:48.740Z,-5.85
2023-03-26T06:02:15.236Z,-5.91
2023-03-26T06:04:42.743Z,-5.91
2023-03-26T06:07:10.014Z,-5.95
2023-03-26T06:09:40.858Z,-5.93
2023-03-26T06:12:08.367Z,-5.87
2023-03-26T06:14:35.216Z,-5.85
2023-03-26T06:17:01.912Z,-5.85
2023-03-26T06:19:28.377Z,-5.84
2023-03-26T06:21:54.830Z,-5.85
2023-03-26T06:24:21.809Z,-5.88
2023-03-26T06:26:48.313Z,-5.91
2023-03-26T06:29:14.844Z,-5.94
2023-03-26T06:31:41.565Z,-6.02
2023-03-26T06:34:08.115Z,-6.07
2023-03-26T06:36:34.614Z,-6.12
2023-03-26T06:39:01.073Z,-6.24
2023-03-26T06:41:34.820Z,-6.31
2023-03-26T06:44:01.373Z,-6.31
2023-03-26T06:46:27.948Z,-6.27
2023-03-26T06:48:54.485Z,-6.25
2023-03-26T06:51:20.977Z,-6.35
2023-03-26T06:53:47.444Z,-6.43
2023-03-26T06:56:13.908Z,-6.47
2023-03-26T06:58:40.678Z,-6.48
2023-03-26T07:01:07.244Z,-6.49
2023-03-26T07:03:33.829Z,-6.48
2023-03-26T07:06:00.442Z,-6.40
2023-03-26T07:08:26.967Z,-6.31
2023-03-26T07:10:53.582Z,-6.28
2023-03-26T07:13:20.369Z,-6.18
2023-03-26T07:15:48.869Z,-6.15
2023-03-26T07:18:15.642Z,-6.10
2023-03-26T07:20:43.591Z,-6.07
2023-03-26T07:23:10.904Z,-6.08
2023-03-26T07:25:37.655Z,-6.05
2023-03-26T07:28:33.410Z,-6.06
2023-03-26T07:31:03.427Z,-5.94
2023-03-26T07:33:46.866Z,-5.92
2023-03-26T07:36:19.439Z,-5.86
2023-03-26T07:39:04.096Z,-5.81
2023-03-26T07:41:48.225Z,-5.76
2023-03-26T07:44:38.500Z,-5.67
2023-03-26T07:47:25.489Z,-5.50
2023-03-26T07:49:55.597Z,-5.43
2023-03-26T07:52:22.288Z,-5.38
2023-03-26T07:54:49.110Z,-5.39
2023-03-26T07:57:32.062Z,-5.59
2023-03-26T08:00:22.101Z,-5.51
2023-03-26T08:03:03.710Z,-5.27
2023-03-26T08:05:44.290Z,-5.03
2023-03-26T08:08:31.767Z,-4.73
2023-03-26T08:11:24.046Z,-4.45
2023-03-26T08:13:57.088Z,-4.43
2023-03-26T08:16:26.796Z,-4.47
2023-03-26T08:19:30.799Z,-4.30
2023-03-26T08:22:11.141Z,-4.11
2023-03-26T08:24:43.602Z,-4.00
2023-03-26T08:27:31.683Z,-3.86
2023-03-26T08:30:09.324Z,-3.77
2023-03-26T08:32:35.995Z,-3.73
2023-03-26T08:35:03.970Z,-3.62
2023-03-26T08:37:30.584Z,-3.58
2023-03-26T08:39:57.447Z,-3.57
2023-03-26T08:42:37.491Z,-3.52
2023-03-26T08:45:42.876Z,-3.53
2023-03-26T08:48:15.450Z,-3.38
2023-03-26T08:51:23.135Z,-3.00
2023-03-26T08:54:18.345Z,-2.64
2023-03-26T08:57:03.732Z,-2.33
2023-03-26T08:59:54.625Z,-1.91
2023-03-26T09:02:37.412Z,-1.96
2023-03-26T09:05:37.994Z,-1.93
2023-03-26T09:08:13.381Z,-1.76
2023-03-26T09:10:52.238Z,-1.46
2023-03-26T09:13:43.379Z,-1.23
2023-03-26T09:16:26.673Z,-0.87
2023-03-26T09:19:34.883Z,-1.02
2023-03-26T09:22:05.793Z,-1.39
2023-03-26T09:25:06.861Z,-1.66
2023-03-26T09:27:46.149Z,-1.61
2023-03-26T09:30:31.492Z,-1.68
2023-03-26T09:33:16.502Z,-1.97
2023-03-26T09:35:52.850Z,-1.89
2023-03-26T09:38:50.718Z,-1.83
2023-03-26T09:41:18.670Z,-1.67
2023-03-26T09:43:48.825Z,-1.54
2023-03-26T09:46:52.178Z,-1.36
2023-03-26T09:49:24.692Z,-1.37
2023-03-26T09:51:54.116Z,-1.52
2023-03-26T09:54:39.317Z,-1.57
2023-03-26T09:57:39.800Z,-1.59
2023-03-26T10:00:40.411Z,-1.84
2023-03-26T10:03:28.163Z,-2.00
2023-03-26T10:06:20.153Z,-2.08
2023-03-26T10:08:55.786Z,-1.91
2023-03-26T10:11:37.767Z,-1.95
2023-03-26T10:14:26.997Z,-1.98
2023-03-26T10:17:18.256Z,-2.24
2023-03-26T10:20:09.546Z,-2.31
2023-03-26T10:22:56.701Z,-2.09
2023-03-26T10:25:50.202Z,-2.07
2023-03-26T10:28:38.436Z,-2.05
2023-03-26T10:31:07.594Z,-1.86
2023-03-26T10:33:52.591Z,-1.86
2023-03-26T10:36:19.001Z,-1.88
2023-03-26T10:39:09.338Z,-1.82
2023-03-26T10:41:40.181Z,-1.47
2023-03-26T10:44:15.740Z,-1.27
2023-03-26T10:47:08.374Z,-1.39
2023-03-26T10:49:49.724Z,-1.21
2023-03-26T10:52:20.867Z,-1.15
2023-03-26T10:54:53.197Z,-1.13
2023-03-26T10:57:38.318Z,-1.27
2023-03-26T11:00:26.995Z,-1.61
2023-03-26T11:03:17.294Z,-2.06
2023-03-26T11:06:15.270Z,-2.61
2023-03-26T11:08:50.758Z,-3.07
2023-03-26T11:11:20.278Z,-3.17
2023-03-26T11:14:00.984Z,-3.61
2023-03-26T11:17:02.794Z,-3.92
2023-03-26T11:19:41.380Z,-4.54
2023-03-26T11:22:17.672Z,-4.98
2023-03-26T11:24:59.340Z,-5.50
2023-03-26T11:27:35.955Z,-5.24
2023-03-26T11:30:02.344Z,-4.97
2023-03-26T11:32:40.665Z,-4.70
2023-03-26T11:35:39.679Z,-4.44
2023-03-26T11:38:22.067Z,-4.45
2023-03-26T11:40:51.104Z,-4.37
2023-03-26T11:43:21.050Z,-4.32
2023-03-26T11:45:47.985Z,-4.06
2023-03-26T11:48:20.364Z,-4.23
2023-03-26T11:50:55.961Z,-4.47
2023-03-26T11:53:24.612Z,-3.89
2023-03-26T11:56:14.743Z,-0.94
2023-03-26T11:58:56.314Z,2.14
2023-03-26T12:01:32.669Z,3.59
2023-03-26T12:04:13.172Z,4.71
2023-03-26T12:06:39.814Z,3.86
2023-03-26T12:09:17.225Z,4.58
2023-03-26T12:11:45.079Z,3.17
2023-03-26T12:14:17.454Z,1.44
2023-03-26T12:18:24.225Z,6.79
2023-03-26T12:21:08.466Z,6.73
2023-03-26T12:23:52.410Z,9.26
2023-03-26T12:26:34.983Z,14.35
2023-03-26T12:29:06.913Z,17.42
2023-03-26T12:31:42.375Z,19.05
2023-03-26T12:34:22.996Z,20.58
2023-03-26T12:36:54.579Z,21.94
2023-03-26T12:40:06.646Z,22.69
2023-03-26T12:44:46.038Z,24.35
2023-03-26T12:45:16.828Z,23.61
2023-03-26T12:47:57.023Z,23.09
2023-03-26T12:50:44.524Z,19.15
2023-03-26T12:53:17.935Z,15.86
2023-03-26T12:55:51.101Z,14.25
2023-03-26T12:58:25.893Z,13.19
2023-03-26T13:01:21.648Z,11.76
2023-03-26T13:04:24.170Z,9.82
2023-03-26T13:07:00.678Z,8.85
2023-03-26T13:09:46.628Z,7.90
2023-03-26T13:12:22.941Z,6.92
2023-03-26T13:14:49.412Z,6.16
2023-03-26T13:17:23.622Z,5.71
2023-03-26T13:20:01.786Z,5.27
2023-03-26T13:22:56.314Z,4.72
2023-03-26T13:25:48.971Z,4.08
2023-03-26T13:28:32.301Z,3.48
2023-03-26T13:31:25.985Z,2.22
2023-03-26T13:34:27.642Z,1.07
2023-03-26T13:37:32.886Z,0.33
2023-03-26T13:40:14.504Z,-0.13
2023-03-26T13:43:26.375Z,-0.65
2023-03-26T13:46:05.114Z,-0.88
2023-03-26T13:49:02.215Z,-1.29
2023-03-26T13:52:02.176Z,-2.01
2023-03-26T13:54:36.894Z,-2.27
2023-03-26T13:57:25.300Z,-2.46
2023-03-26T14:00:12.653Z,-2.66
2023-03-26T14:02:40.561Z,-2.70
2023-03-26T14:05:17.171Z,-2.73
2023-03-26T14:07:47.035Z,-2.70
2023-03-26T14:10:18.718Z,-2.76
2023-03-26T14:12:57.251Z,-2.74
2023-03-26T14:15:32.324Z,-2.74
2023-03-26T14:18:07.751Z,-2.70
2023-03-26T14:20:56.314Z,-2.60
2023-03-26T14:23:31.034Z,-2.43
2023-03-26T14:26:16.125Z,-2.29
2023-03-26T14:29:23.931Z,-2.12
2023-03-26T14:32:14.388Z,-1.93
2023-03-26T14:35:05.703Z,-1.83
2023-03-26T14:38:09.590Z,-1.75
2023-03-26T14:40:51.182Z,-1.57
2023-03-26T14:43:30.478Z,-1.35
2023-03-26T14:46:03.180Z,-1.14
2023-03-26T14:48:34.366Z,-0.98
2023-03-26T14:51:28.573Z,-0.83
2023-03-26T14:54:22.828Z,-0.67
2023-03-26T14:57:03.939Z,-0.49
2023-03-26T14:59:42.321Z,-0.43
2023-03-26T15:02:30.813Z,-0.31
2023-03-26T15:05:21.863Z,-0.17
2023-03-26T15:08:03.428Z,0.01
2023-03-26T15:10:46.961Z,0.22
2023-03-26T15:13:51.175Z,0.59
2023-03-26T15:16:49.765Z,1.01
2023-03-26T15:19:53.636Z,1.87
2023-03-26T15:22:26.191Z,3.45
2023-03-26T15:25:20.499Z,4.03
2023-03-26T15:28:25.801Z,3.58
2023-03-26T15:31:18.498Z,3.09
2023-03-26T15:34:12.121Z,3.09
2023-03-26T15:36:50.955Z,3.21
2023-03-26T15:39:27.631Z,3.64
2023-03-26T15:42:19.627Z,4.46
2023-03-26T15:45:30.978Z,8.41
2023-03-26T15:48:12.931Z,10.86
2023-03-26T15:50:51.608Z,13.95
2023-03-26T15:53:23.908Z,13.35
2023-03-26T15:56:12.145Z,14.51
2023-03-26T15:59:00.493Z,15.22
2023-03-26T16:02:02.512Z,14.02
2023-03-26T16:04:54.571Z,11.13
2023-03-26T16:07:21.791Z,9.40
2023-03-26T16:09:51.336Z,8.12
2023-03-26T16:12:17.673Z,7.03
2023-03-26T16:14:44.112Z,6.04
2023-03-26T16:17:18.389Z,5.52
2023-03-26T16:20:08.154Z,4.95
2023-03-26T16:22:44.855Z,4.25
2023-03-26T16:25:26.859Z,3.81
2023-03-26T16:28:10.662Z,3.20
2023-03-26T16:30:37.468Z,2.83
2023-03-26T16:33:17.622Z,2.67
2023-03-26T16:36:04.650Z,2.44
2023-03-26T16:39:11.564Z,2.16
2023-03-26T16:41:49.991Z,1.96
2023-03-26T16:44:20.686Z,1.74
2023-03-26T16:47:20.547Z,1.57
2023-03-26T16:50:08.516Z,1.47
2023-03-26T16:53:05.242Z,1.39
2023-03-26T16:55:46.907Z,1.26
2023-03-26T16:58:21.942Z,1.23
2023-03-26T17:00:54.876Z,1.13
2023-03-26T17:03:44.797Z,1.02
2023-03-26T17:06:53.846Z,0.98
2023-03-26T17:09:20.416Z,1.04
2023-03-26T17:12:27.297Z,1.05
2023-03-26T17:15:32.798Z,1.13
2023-03-26T17:18:25.758Z,1.10
2023-03-26T17:21:14.485Z,1.04
2023-03-26T17:23:56.163Z,0.99
2023-03-26T17:26:42.170Z,0.93
2023-03-26T17:29:33.054Z,0.92
2023-03-26T17:32:00.734Z,0.90
2023-03-26T17:34:49.110Z,0.82
2023-03-26T17:37:21.541Z,0.80
2023-03-26T17:40:27.058Z,0.81
2023-03-26T17:43:10.040Z,0.68
2023-03-26T17:45:37.656Z,0.51
2023-03-26T17:48:15.670Z,0.29
2023-03-26T17:50:46.217Z,0.14
2023-03-26T17:53:16.773Z,0.03
2023-03-26T17:55:43.667Z,-0.12
2023-03-26T17:58:37.608Z,-0.23
2023-03-26T18:01:34.813Z,-0.30
2023-03-26T18:04:09.523Z,-0.53
2023-03-26T18:07:00.303Z,-0.72
2023-03-26T18:09:44.960Z,-0.78
2023-03-26T18:12:52.902Z,-0.82
2023-03-26T18:15:31.888Z,-0.89
2023-03-26T18:18:19.880Z,-0.96
2023-03-26T18:20:47.858Z,-0.96
2023-03-26T18:23:47.516Z,-1.01
2023-03-26T18:26:16.332Z,-1.15
2023-03-26T18:28:51.265Z,-1.30
2023-03-26T18:31:26.026Z,-1.50
2023-03-26T18:33:55.765Z,-1.71
2023-03-26T18:36:24.468Z,-1.79
2023-03-26T18:38:51.729Z,-1.82
2023-03-26T18:41:31.122Z,-1.89
2023-03-26T18:44:01.990Z,-1.88
2023-03-26T18:46:28.618Z,-1.92
2023-03-26T18:48:55.654Z,-1.86
2023-03-26T18:51:23.301Z,-1.83
2023-03-26T18:53:52.523Z,-1.76
2023-03-26T18:56:48.375Z,-1.75
2023-03-26T18:59:27.897Z,-1.73
2023-03-26T19:02:04.373Z,-1.79
2023-03-26T19:04:33.347Z,-1.92
2023-03-26T19:07:00.360Z,-2.03
2023-03-26T19:09:32.215Z,-2.09
2023-03-26T19:12:06.421Z,-2.20
2023-03-26T19:14:36.818Z,-2.28
2023-03-26T19:17:04.734Z,-2.36
2023-03-26T19:19:33.071Z,-2.46
2023-03-26T19:21:59.852Z,-2.52
2023-03-26T19:24:26.415Z,-2.60
2023-03-26T19:26:52.865Z,-2.57
2023-03-26T19:29:25.858Z,-2.49
2023-03-26T19:31:52.770Z,-2.36
2023-03-26T19:34:31.628Z,-2.23
2023-03-26T19:37:00.998Z,-2.13
2023-03-26T19:39:42.633Z,-2.05
2023-03-26T19:42:14.184Z,-1.99
2023-03-26T19:44:41.151Z,-1.94
2023-03-26T19:47:14.139Z,-1.88
2023-03-26T19:49:52.949Z,-1.84
2023-03-26T19:52:39.527Z,-1.86
2023-03-26T19:55:12.136Z,-1.80
2023-03-26T19:57:38.849Z,-1.76
2023-03-26T20:00:13.263Z,-1.72
2023-03-26T20:02:45.295Z,-1.65
2023-03-26T20:05:26.004Z,-1.59
2023-03-26T20:07:52.847Z,-1.61
2023-03-26T20:10:19.357Z,-1.62
2023-03-26T20:12:45.914Z,-1.62
2023-03-26T20:15:19.228Z,-1.55
2023-03-26T20:17:47.080Z,-1.55
2023-03-26T20:20:13.735Z,-1.69
2023-03-26T20:22:40.287Z,-1.79
2023-03-26T20:25:23.142Z,-1.83
2023-03-26T20:27:49.620Z,-1.93
2023-03-26T20:30:19.055Z,-1.98
2023-03-26T20:32:45.821Z,-2.03
2023-03-26T20:35:36.211Z,-2.06
2023-03-26T20:38:03.126Z,-2.02
2023-03-26T20:40:29.665Z,-2.03
2023-03-26T20:42:56.467Z,-2.14
2023-03-26T20:45:23.770Z,-2.15
2023-03-26T20:47:50.537Z,-2.10
2023-03-26T20:50:18.161Z,-2.16
2023-03-26T20:52:44.663Z,-2.11
2023-03-26T20:55:15.613Z,-2.09
2023-03-26T20:57:42.944Z,-2.07
2023-03-26T21:00:32.358Z,-2.00
2023-03-26T21:02:58.921Z,-2.15
2023-03-26T21:05:26.753Z,-2.19
2023-03-26T21:07:54.198Z,-2.21
2023-03-26T21:10:21.246Z,-2.21
2023-03-26T21:12:47.738Z,-2.20
2023-03-26T21:15:22.978Z,-2.15
2023-03-26T21:17:51.762Z,-2.18
2023-03-26T21:20:19.281Z,-2.13
2023-03-26T21:23:12.082Z,-2.10
2023-03-26T21:26:01.438Z,-2.16
2023-03-26T21:28:42.565Z,-2.26
2023-03-26T21:31:18.547Z,-2.21
2023-03-26T21:33:45.852Z,-2.18
2023-03-26T21:36:13.250Z,-2.20
2023-03-26T21:38:40.301Z,-2.24
2023-03-26T21:41:07.070Z,-2.24
2023-03-26T21:43:33.564Z,-2.26
2023-03-26T21:46:00.600Z,-2.32
2023-03-26T21:48:28.880Z,-2.39
2023-03-26T21:50:55.713Z,-2.50
2023-03-26T21:53:24.293Z,-2.57
2023-03-26T21:56:24.417Z,-2.63
2023-03-26T21:59:00.823Z,-2.59
2023-03-26T22:01:38.164Z,-2.57
2023-03-26T22:04:16.915Z,-2.59
2023-03-26T22:06:50.868Z,-2.55
2023-03-26T22:09:20.687Z,-2.61
2023-03-26T22:11:52.986Z,-2.57
2023-03-26T22:14:20.646Z,-2.49
2023-03-26T22:16:47.139Z,-2.56
2023-03-26T22:19:13.675Z,-2.59
2023-03-26T22:21:40.185Z,-2.65
2023-03-26T22:24:07.539Z,-2.71
2023-03-26T22:26:34.067Z,-2.73
2023-03-26T22:29:00.908Z,-2.79
2023-03-26T22:31:27.595Z,-2.83
2023-03-26T22:33:54.480Z,-2.92
2023-03-26T22:36:22.782Z,-2.94
2023-03-26T22:38:53.016Z,-2.99
2023-03-26T22:41:19.569Z,-3.03
2023-03-26T22:43:46.388Z,-3.04
2023-03-26T22:46:13.701Z,-3.00
2023-03-26T22:48:40.734Z,-2.90
2023-03-26T22:51:08.250Z,-3.01
2023-03-26T22:53:34.827Z,-3.01
2023-03-26T22:56:01.322Z,-2.99
2023-03-26T22:58:28.340Z,-3.00
2023-03-26T23:01:10.536Z,-3.08
2023-03-26T23:03:37.130Z,-3.22
2023-03-26T23:06:07.839Z,-3.23
2023-03-26T23:08:35.004Z,-3.22
2023-03-26T23:11:02.001Z,-3.29
2023-03-26T23:13:28.466Z,-3.34
2023-03-26T23:15:56.862Z,-3.32
2023-03-26T23:18:23.714Z,-3.27
2023-03-26T23:20:55.418Z,-3.17
2023-03-26T23:23:27.212Z,-3.08
2023-03-26T23:25:54.969Z,-3.00
2023-03-26T23:28:23.846Z,-2.93
2023-03-26T23:30:52.202Z,-2.84
2023-03-26T23:33:24.596Z,-2.81
2023-03-26T23:35:52.092Z,-2.84
2023-03-26T23:38:19.371Z,-2.86
2023-03-26T23:40:45.955Z,-2.80
2023-03-26T23:43:24.382Z,-2.83
2023-03-26T23:45:50.929Z,-2.85
2023-03-26T23:48:22.209Z,-3.01
2023-03-26T23:50:53.243Z,-2.95
2023-03-26T23:53:31.210Z,-2.89
2023-03-26T23:56:00.549Z,-2.85
2023-03-26T23:58:30.033Z,-2.78
